Time;durP1;ratioP1;P1;durP2;ratioP2;P2;SDS_P1;SDS_P2;PMS_P1;PMS_P2;Temp;Humidity;BMP_temperature;BMP_pressure;BME280_temperature;BME280_humidity;BME280_pressure;Samples;Min_cycle;Max_cycle;Signal;HPM_P1;HPM_P2
2022/04/11 00:00:09;;;;;;;;;13.00;13.00;;;;;4.96;61.46;99642.88;5036717;28;8958;-79
2022/04/11 00:02:59;;;;;;;;;18.60;15.00;;;;;4.92;61.58;99641.06;5054590;28;8966;-78
2022/04/11 00:05:28;;;;;;;;;15.20;14.80;;;;;5.04;61.56;99640.47;5082593;28;8870;-80
2022/04/11 00:07:57;;;;;;;;;18.25;16.50;;;;;4.94;61.67;99641.97;5065490;28;9705;-80
2022/04/11 00:10:26;;;;;;;;;18.20;16.00;;;;;4.89;61.90;99634.06;5069031;28;8997;-80
2022/04/11 00:13:02;;;;;;;;;14.60;13.20;;;;;4.81;62.12;99638.19;5068964;28;8870;-84
2022/04/11 00:15:38;;;;;;;;;11.50;11.50;;;;;4.85;62.45;99634.84;5050919;28;8866;-79
2022/04/11 00:18:10;;;;;;;;;15.75;15.50;;;;;4.82;62.61;99642.53;5066419;28;9942;-82
2022/04/11 00:20:38;;;;;;;;;22.00;15.50;;;;;4.83;62.39;99648.56;5085208;28;8904;-84
2022/04/11 00:23:07;;;;;;;;;15.00;13.25;;;;;4.87;62.45;99651.25;5070829;28;8927;-79
2022/04/11 00:25:37;;;;;;;;;15.00;15.00;;;;;4.88;62.36;99657.31;5072645;28;9067;-78
2022/04/11 00:28:07;;;;;;;;;17.50;16.00;;;;;4.83;62.88;99664.94;5070716;28;8913;-78
2022/04/11 00:30:35;;;;;;;;;13.25;13.25;;;;;4.97;62.57;99667.88;5054066;28;8881;-78
2022/04/11 00:33:04;;;;;;;;;12.20;12.20;;;;;5.10;62.00;99669.03;5053865;28;8850;-79
2022/04/11 00:35:35;;;;;;;;;14.20;13.00;;;;;5.28;61.50;99668.59;5056743;28;8950;-79
2022/04/11 00:38:04;;;;;;;;;14.40;12.80;;;;;5.24;61.83;99674.53;5054128;28;8854;-79
2022/04/11 00:40:32;;;;;;;;;22.50;21.00;;;;;4.88;63.55;99684.03;5053396;28;8865;-82
2022/04/11 00:43:01;;;;;;;;;21.50;20.50;;;;;4.76;63.84;99677.69;5053813;28;8837;-77
2022/04/11 00:45:31;;;;;;;;;19.50;18.50;;;;;4.54;65.44;99687.47;5069568;28;8850;-79
2022/04/11 00:47:59;;;;;;;;;21.25;20.75;;;;;4.61;64.86;99685.91;5046528;28;8960;-78
2022/04/11 00:50:29;;;;;;;;;16.00;15.80;;;;;4.82;64.64;99685.56;5041792;28;8906;-79
2022/04/11 00:53:01;;;;;;;;;22.50;19.25;;;;;4.99;64.10;99686.88;5022193;28;8956;-78
2022/04/11 00:55:30;;;;;;;;;21.75;19.25;;;;;4.85;64.52;99688.25;5033064;28;8858;-78
2022/04/11 00:57:59;;;;;;;;;22.00;18.00;;;;;4.84;64.79;99695.13;5044468;28;9563;-79
2022/04/11 01:00:29;;;;;;;;;18.50;16.00;;;;;4.65;65.64;99695.47;5033116;28;8852;-78
2022/04/11 01:02:58;;;;;;;;;21.00;19.25;;;;;4.53;66.13;99692.59;5055752;28;8986;-79
2022/04/11 01:05:27;;;;;;;;;18.00;17.50;;;;;4.47;66.04;99699.34;5047140;28;8874;-80
2022/04/11 01:08:05;;;;;;;;;18.75;16.00;;;;;4.57;65.65;99704.75;4988451;28;8885;-79
2022/04/11 01:10:35;;;;;;;;;21.50;20.25;;;;;4.40;66.46;99709.47;5007050;28;9015;-80
2022/04/11 01:13:04;;;;;;;;;16.60;14.60;;;;;4.43;66.44;99707.84;4990834;28;8866;-82
2022/04/11 01:15:33;;;;;;;;;16.50;14.25;;;;;4.47;66.38;99707.09;4989621;28;8866;-79
2022/04/11 01:18:02;;;;;;;;;20.25;15.75;;;;;4.49;66.53;99720.91;4991481;28;8882;-81
2022/04/11 01:20:31;;;;;;;;;18.50;16.25;;;;;4.35;66.76;99713.63;5027727;28;8873;-80
2022/04/11 01:23:01;;;;;;;;;19.00;18.00;;;;;4.41;66.78;99722.41;5027460;28;8875;-78
2022/04/11 01:25:30;;;;;;;;;17.20;14.80;;;;;4.61;65.80;99720.38;4998914;28;8853;-81
2022/04/11 01:28:01;;;;;;;;;19.25;17.25;;;;;4.63;65.73;99722.97;5031953;28;8917;-77
2022/04/11 01:30:30;;;;;;;;;16.75;15.50;;;;;4.76;65.37;99722.44;5029229;28;8887;-80
2022/04/11 01:32:59;;;;;;;;;16.00;15.00;;;;;4.82;65.25;99729.50;5026265;28;8882;-78
2022/04/11 01:35:28;;;;;;;;;15.75;13.25;;;;;5.03;64.46;99727.47;5026683;28;8864;-82
2022/04/11 01:38:05;;;;;;;;;18.25;15.00;;;;;5.22;63.62;99739.13;5008021;28;8864;-83
2022/04/11 01:40:34;;;;;;;;;15.25;14.25;;;;;5.33;63.27;99741.06;5036856;28;9611;-78
2022/04/11 01:43:02;;;;;;;;;16.00;16.00;;;;;5.51;63.00;99740.66;5007477;28;9629;-79
2022/04/11 01:45:31;;;;;;;;;17.50;15.75;;;;;5.27;63.17;99744.38;5000446;28;8880;-79
2022/04/11 01:48:00;;;;;;;;;14.00;14.00;;;;;5.46;62.58;99735.34;4961095;28;8868;-82
2022/04/11 01:50:31;;;;;;;;;16.25;16.00;;;;;5.33;62.77;99733.31;5007158;28;8867;-78
2022/04/11 01:53:06;;;;;;;;;16.25;15.75;;;;;5.02;63.66;99738.63;5012266;28;8848;-79
2022/04/11 01:55:35;;;;;;;;;15.25;15.25;;;;;4.86;64.95;99739.09;4978879;28;9013;-79
2022/04/11 01:58:05;;;;;;;;;15.75;15.00;;;;;4.85;64.43;99758.88;4978870;28;8822;-79
2022/04/11 02:00:35;;;;;;;;;15.00;15.00;;;;;4.77;65.31;99744.88;4994993;28;8853;-82
2022/04/11 02:03:05;;;;;;;;;17.50;16.25;;;;;4.89;64.71;99749.50;4994925;28;8880;-79
2022/04/11 02:05:35;;;;;;;;;19.25;15.75;;;;;4.76;64.73;99752.59;5011538;28;8866;-79
2022/04/11 02:08:07;;;;;;;;;15.25;14.25;;;;;4.84;64.53;99753.69;5010304;28;8841;-78
2022/04/11 02:10:37;;;;;;;;;19.00;18.00;;;;;5.06;63.81;99749.91;5011596;28;8850;-80
2022/04/11 02:13:07;;;;;;;;;17.20;13.00;;;;;4.72;64.27;99756.78;4971803;28;8866;-78
2022/04/11 02:15:35;;;;;;;;;16.80;15.40;;;;;4.21;67.18;99755.41;4994643;28;9910;-77
2022/04/11 02:18:05;;;;;;;;;15.40;14.20;;;;;4.06;67.37;99766.19;5009132;28;8871;-80
2022/04/11 02:20:35;;;;;;;;;15.50;13.75;;;;;3.96;67.88;99766.75;4992743;28;9606;-78
2022/04/11 02:23:05;;;;;;;;;16.25;14.75;;;;;3.87;68.14;99771.63;5026331;28;8879;-78
2022/04/11 02:25:36;;;;;;;;;11.75;11.75;;;;;4.01;68.17;99777.22;5011224;28;8867;-80
2022/04/11 02:28:05;;;;;;;;;15.00;13.75;;;;;3.84;68.39;99781.88;4993463;28;9799;-78
2022/04/11 02:30:34;;;;;;;;;14.00;13.75;;;;;3.91;68.00;99786.34;4979352;28;8863;-80
2022/04/11 02:33:03;;;;;;;;;13.75;11.50;;;;;4.27;67.10;99786.59;4979722;28;8889;-78
2022/04/11 02:35:31;;;;;;;;;16.00;13.75;;;;;4.33;66.56;99787.56;4994131;28;8971;-78
2022/04/11 02:38:00;;;;;;;;;10.80;9.20;;;;;4.61;65.26;99790.13;4930736;28;10041;-81
2022/04/11 02:40:31;;;;;;;;;15.25;11.75;;;;;4.80;64.95;99788.91;4994373;28;8916;-80
2022/04/11 02:43:11;;;;;;;;;15.25;12.00;;;;;4.93;64.16;99790.06;4996603;28;8859;-78
2022/04/11 02:45:46;;;;;;;;;18.00;15.00;;;;;4.97;63.70;99796.19;5069602;28;8844;-78
2022/04/11 02:48:19;;;;;;;;;16.25;13.50;;;;;5.15;63.47;99799.25;5069720;28;8860;-78
2022/04/11 02:50:54;;;;;;;;;19.60;18.40;;;;;5.31;62.90;99797.06;5036824;28;8846;-78
2022/04/11 02:53:29;;;;;;;;;21.25;17.50;;;;;5.40;62.62;99799.88;5055752;28;8876;-78
2022/04/11 02:55:59;;;;;;;;;19.00;17.25;;;;;5.52;62.32;99802.75;5017522;28;8901;-79
2022/04/11 02:58:28;;;;;;;;;24.60;19.20;;;;;5.33;62.69;99806.63;5033978;28;9623;-78
2022/04/11 03:00:57;;;;;;;;;19.00;17.00;;;;;5.49;62.26;99806.97;5008602;28;9613;-77
2022/04/11 03:03:27;;;;;;;;;22.50;19.75;;;;;5.51;62.66;99811.34;5041222;28;8898;-79
2022/04/11 03:05:58;;;;;;;;;19.50;17.75;;;;;5.59;62.17;99812.38;5071524;28;8858;-78
2022/04/11 03:08:27;;;;;;;;;18.20;18.20;;;;;5.68;61.92;99829.00;5075057;28;8889;-79
2022/04/11 03:10:59;;;;;;;;;19.25;19.25;;;;;5.66;61.58;99824.63;5056941;28;9042;-77
2022/04/11 03:13:29;;;;;;;;;19.60;18.80;;;;;5.74;61.58;99824.81;5019400;28;8861;-83
2022/04/11 03:15:59;;;;;;;;;22.50;19.25;;;;;5.78;61.34;99834.41;5069147;28;8883;-82
2022/04/11 03:18:27;;;;;;;;;21.75;20.25;;;;;5.84;61.38;99828.50;5053934;28;8857;-79
2022/04/11 03:20:56;;;;;;;;;20.00;18.50;;;;;5.90;60.96;99822.56;5053490;28;8865;-78
2022/04/11 03:23:26;;;;;;;;;27.00;23.00;;;;;5.90;61.04;99828.66;5050970;28;8923;-80
2022/04/11 03:25:59;;;;;;;;;39.25;36.25;;;;;5.89;60.54;99826.03;5034415;28;8848;-79
2022/04/11 03:28:32;;;;;;;;;35.00;29.50;;;;;5.89;60.68;99832.06;5050906;28;8860;-78
2022/04/11 03:31:01;;;;;;;;;17.00;17.00;;;;;5.91;60.66;99834.69;5046673;28;8957;-79
2022/04/11 03:33:30;;;;;;;;;16.40;16.40;;;;;5.92;60.60;99826.09;5070758;28;9628;-77
2022/04/11 03:35:59;;;;;;;;;16.50;15.50;;;;;5.93;60.57;99826.13;5048284;28;8854;-76
2022/04/11 03:38:28;;;;;;;;;20.25;18.50;;;;;5.93;60.48;99830.44;5015096;28;9583;-82
2022/04/11 03:41:00;;;;;;;;;19.75;19.25;;;;;5.91;60.39;99832.97;4986836;28;8952;-78
2022/04/11 03:43:30;;;;;;;;;22.50;19.00;;;;;5.90;60.46;99838.09;5038105;28;8854;-79
2022/04/11 03:45:59;;;;;;;;;21.00;19.25;;;;;5.89;60.39;99849.31;5020335;28;8872;-82
2022/04/11 03:48:27;;;;;;;;;19.50;18.50;;;;;5.90;60.10;99848.47;5014055;28;8977;-81
2022/04/11 03:50:56;;;;;;;;;23.00;19.50;;;;;5.91;60.03;99852.81;4987496;28;8873;-81
2022/04/11 03:53:27;;;;;;;;;21.75;18.75;;;;;5.90;60.27;99854.53;4993237;28;8882;-81
2022/04/11 03:56:00;;;;;;;;;18.50;17.00;;;;;5.85;59.88;99854.41;5009956;28;9019;-81
2022/04/11 03:58:31;;;;;;;;;18.75;17.75;;;;;5.84;60.37;99854.38;4994174;28;8932;-80
2022/04/11 04:01:03;;;;;;;;;52.50;44.75;;;;;5.80;60.30;99858.63;4978078;28;8854;-80
2022/04/11 04:03:32;;;;;;;;;27.50;26.25;;;;;5.80;60.89;99850.88;4992982;28;8874;-83
2022/04/11 04:06:05;;;;;;;;;25.25;25.00;;;;;5.76;60.72;99858.50;4978250;28;9683;-78
2022/04/11 04:08:39;;;;;;;;;26.25;23.00;;;;;5.76;60.85;99861.94;5029168;28;8875;-80
2022/04/11 04:11:15;;;;;;;;;27.75;22.50;;;;;5.81;60.65;99865.53;4997540;28;8848;-77
2022/04/11 04:13:50;;;;;;;;;31.25;22.75;;;;;5.73;60.32;99867.06;5031853;28;8856;-79
2022/04/11 04:16:19;;;;;;;;;18.00;18.00;;;;;5.75;60.70;99862.81;5016387;28;8856;-78
2022/04/11 04:18:55;;;;;;;;;16.00;16.00;;;;;5.76;60.47;99867.13;5018570;28;8864;-82
2022/04/11 04:21:24;;;;;;;;;23.75;23.00;;;;;5.76;60.40;99874.88;5015595;28;8836;-82
2022/04/11 04:23:53;;;;;;;;;66.25;52.00;;;;;5.80;60.39;99875.84;5012729;28;8856;-83
2022/04/11 04:26:26;;;;;;;;;30.25;27.25;;;;;5.78;59.90;99880.97;5028382;28;8968;-77
2022/04/11 04:28:55;;;;;;;;;26.00;21.25;;;;;5.79;60.31;99887.03;5015038;28;8836;-77
2022/04/11 04:31:27;;;;;;;;;22.40;19.80;;;;;5.84;60.12;99886.31;5011641;28;9598;-76
2022/04/11 04:33:56;;;;;;;;;21.50;16.25;;;;;5.88;60.14;99888.97;4996644;28;9072;-79
2022/04/11 04:36:25;;;;;;;;;22.25;22.25;;;;;5.88;59.64;99895.03;5005829;28;8920;-78
2022/04/11 04:38:54;;;;;;;;;28.00;26.25;;;;;5.86;59.86;99900.16;5016048;28;8925;-83
2022/04/11 04:41:24;;;;;;;;;26.00;24.00;;;;;5.56;60.33;99905.47;5069137;28;8853;-78
2022/04/11 04:43:54;;;;;;;;;18.50;16.50;;;;;5.59;60.49;99910.69;5034732;28;8862;-78
2022/04/11 04:46:23;;;;;;;;;22.75;18.25;;;;;5.61;60.36;99905.56;5034141;28;8854;-79
2022/04/11 04:49:03;;;;;;;;;23.75;18.00;;;;;5.51;60.49;99908.75;5015995;28;9000;-79
2022/04/11 04:51:32;;;;;;;;;32.50;28.75;;;;;5.61;60.60;99921.97;5030763;28;8893;-77
2022/04/11 04:54:05;;;;;;;;;23.00;23.00;;;;;5.62;60.30;99917.69;5019879;28;8904;-76
2022/04/11 04:56:36;;;;;;;;;22.80;18.00;;;;;5.69;60.36;99923.88;5000129;28;8964;-81
2022/04/11 04:59:13;;;;;;;;;12.20;12.20;;;;;5.62;60.33;99933.19;5017139;28;8858;-81
2022/04/11 05:01:42;;;;;;;;;14.80;14.80;;;;;5.72;60.37;99935.16;5032266;28;8842;-78
2022/04/11 05:04:19;;;;;;;;;15.00;14.60;;;;;5.84;59.71;99929.41;5015336;28;8961;-79
2022/04/11 05:06:47;;;;;;;;;18.40;18.40;;;;;5.38;60.35;99939.47;4999142;28;8974;-79
2022/04/11 05:09:17;;;;;;;;;19.60;17.00;;;;;5.67;60.10;99941.94;5015850;28;8850;-78
2022/04/11 05:11:49;;;;;;;;;18.00;16.00;;;;;5.53;60.00;99939.00;5031476;28;8873;-84
2022/04/11 05:14:25;;;;;;;;;23.00;21.00;;;;;5.74;59.85;99948.16;5015991;28;9615;-79
2022/04/11 05:17:01;;;;;;;;;20.00;19.75;;;;;5.89;59.55;99958.00;5048073;28;8898;-79
2022/04/11 05:19:31;;;;;;;;;18.00;17.00;;;;;5.86;59.45;99959.69;5090759;28;8874;-82
2022/04/11 05:22:00;;;;;;;;;13.50;13.50;;;;;5.76;59.33;99957.69;5083887;28;8920;-82
2022/04/11 05:24:29;;;;;;;;;16.40;15.80;;;;;6.01;58.68;99960.94;5065354;28;8881;-81
2022/04/11 05:26:59;;;;;;;;;23.25;20.75;;;;;5.62;59.89;99970.28;5064014;28;8875;-78
2022/04/11 05:29:29;;;;;;;;;20.40;17.20;;;;;5.75;59.94;99970.63;5067235;28;8869;-79
2022/04/11 05:31:59;;;;;;;;;14.60;12.20;;;;;5.83;58.41;99974.25;5056978;28;8853;-76
2022/04/11 05:34:28;;;;;;;;;17.40;15.00;;;;;5.32;60.30;99978.09;5051205;28;8928;-79
2022/04/11 05:36:58;;;;;;;;;22.20;19.80;;;;;5.18;60.99;99977.72;5076820;28;8849;-79
2022/04/11 05:39:27;;;;;;;;;14.60;14.20;;;;;5.47;60.59;99969.88;5050415;28;8874;-79
2022/04/11 05:41:56;;;;;;;;;22.75;18.00;;;;;5.01;60.33;99987.59;5048143;28;8958;-79
2022/04/11 05:44:25;;;;;;;;;20.00;18.40;;;;;4.61;63.14;99991.56;5081066;28;8841;-78
2022/04/11 05:46:55;;;;;;;;;15.20;14.20;;;;;5.14;62.19;99988.81;5064487;28;8852;-83
2022/04/11 05:49:33;;;;;;;;;16.20;15.20;;;;;5.38;60.81;99986.00;5048866;28;8861;-80
2022/04/11 05:52:03;;;;;;;;;19.25;18.00;;;;;5.29;60.05;99983.16;5074556;28;9615;-78
2022/04/11 05:54:31;;;;;;;;;16.80;15.40;;;;;5.42;60.17;99986.97;5081013;28;8876;-69
2022/04/11 05:57:00;;;;;;;;;23.50;20.75;;;;;5.47;59.72;99993.16;4996367;28;8869;-70
2022/04/11 05:59:29;;;;;;;;;23.75;23.50;;;;;4.76;62.81;99995.44;5061990;28;8857;-68
2022/04/11 06:02:00;;;;;;;;;21.00;19.80;;;;;5.36;61.56;99990.28;5062661;28;8841;-70
2022/04/11 06:04:28;;;;;;;;;21.50;19.00;;;;;5.34;60.51;99993.66;5048498;28;8849;-77
2022/04/11 06:06:57;;;;;;;;;22.75;19.25;;;;;5.59;60.63;99985.72;5065064;28;8862;-78
2022/04/11 06:09:26;;;;;;;;;24.60;20.20;;;;;5.87;59.64;99986.44;5082301;28;8969;-79
2022/04/11 06:11:55;;;;;;;;;16.00;15.20;;;;;5.89;59.76;99986.47;5063721;28;8869;-81
2022/04/11 06:14:24;;;;;;;;;18.60;16.80;;;;;5.89;59.47;99989.94;5046121;28;8849;-79
2022/04/11 06:16:53;;;;;;;;;6.80;5.60;;;;;5.96;59.71;99989.31;5080219;28;8864;-78
2022/04/11 06:19:23;;;;;;;;;17.20;16.40;;;;;5.27;61.41;99993.50;5040093;28;8834;-80
2022/04/11 06:21:52;;;;;;;;;16.20;16.20;;;;;5.08;62.10;99994.69;5056265;28;8861;-80
2022/04/11 06:24:22;;;;;;;;;20.40;19.20;;;;;4.97;63.15;99993.50;5046792;28;8852;-79
2022/04/11 06:26:50;;;;;;;;;15.40;14.80;;;;;4.84;63.78;100004.31;5045863;28;8880;-80
2022/04/11 06:29:19;;;;;;;;;15.00;15.00;;;;;4.49;65.04;99998.91;5056466;28;8901;-79
2022/04/11 06:31:48;;;;;;;;;19.00;17.80;;;;;4.73;65.00;99998.81;5002398;28;8996;-79
2022/04/11 06:34:25;;;;;;;;;19.20;18.00;;;;;4.91;65.07;99995.88;5084545;28;8854;-76
2022/04/11 06:36:54;;;;;;;;;19.00;19.00;;;;;5.02;64.44;99986.72;5070194;28;8852;-81
2022/04/11 06:39:23;;;;;;;;;14.40;14.40;;;;;5.18;64.04;99989.75;5051495;28;8891;-80
2022/04/11 06:41:56;;;;;;;;;19.60;16.20;;;;;5.27;64.11;99984.84;5016120;28;8833;-84
2022/04/11 06:44:26;;;;;;;;;18.00;16.00;;;;;5.19;63.94;99982.03;5067496;28;8854;-85
2022/04/11 06:47:15;;;;;;;;;20.50;20.00;;;;;5.37;63.59;99994.63;5067998;28;8914;-79
2022/04/11 06:49:45;;;;;;;;;20.40;17.00;;;;;5.39;63.25;99982.59;5046408;28;8892;-81
2022/04/11 06:52:14;;;;;;;;;22.60;19.40;;;;;5.56;63.14;99988.25;5048490;28;8860;-78
2022/04/11 06:54:44;;;;;;;;;16.00;13.20;;;;;5.38;63.30;99991.19;5069461;28;8867;-79
2022/04/11 06:57:13;;;;;;;;;20.50;17.50;;;;;5.39;63.74;99992.09;5068995;28;8957;-81
2022/04/11 06:59:42;;;;;;;;;17.00;16.60;;;;;5.39;63.58;99995.53;5049013;28;8868;-82
2022/04/11 07:02:11;;;;;;;;;20.20;20.20;;;;;5.81;63.11;99988.88;5049013;28;8933;-80
2022/04/11 07:04:40;;;;;;;;;20.00;20.00;;;;;6.05;62.20;99986.94;5068403;28;8901;-79
2022/04/11 07:07:10;;;;;;;;;12.80;11.00;;;;;6.28;60.64;99994.41;5065232;28;8954;-84
2022/04/11 07:09:39;;;;;;;;;18.20;17.40;;;;;6.39;59.57;99987.75;5063971;28;8832;-84
2022/04/11 07:12:08;;;;;;;;;17.60;15.40;;;;;6.54;59.15;99983.75;5047929;28;9036;-80
2022/04/11 07:14:37;;;;;;;;;18.80;17.60;;;;;6.58;58.11;99989.06;5043092;28;8869;-78
2022/04/11 07:17:07;;;;;;;;;15.20;13.20;;;;;6.77;56.70;99995.53;5083168;28;8853;-79
2022/04/11 07:19:36;;;;;;;;;14.80;13.60;;;;;6.65;56.06;100003.00;5089522;28;8844;-81
2022/04/11 07:22:05;;;;;;;;;13.40;9.60;;;;;6.71;55.00;99990.22;5053021;28;8878;-77
2022/04/11 07:24:38;;;;;;;;;12.60;11.80;;;;;6.82;55.54;99983.53;5065741;28;8895;-80
2022/04/11 07:27:07;;;;;;;;;16.60;13.80;;;;;7.31;54.33;99994.03;5072939;28;8865;-79
2022/04/11 07:29:37;;;;;;;;;13.40;11.40;;;;;7.16;55.15;99999.78;5085105;28;8874;-79
2022/04/11 07:32:06;;;;;;;;;11.60;10.60;;;;;7.04;55.31;99994.34;5053914;28;9580;-82
2022/04/11 07:34:35;;;;;;;;;11.20;11.20;;;;;7.02;55.53;99999.50;5053081;28;8883;-79
2022/04/11 07:37:05;;;;;;;;;14.00;13.00;;;;;7.21;54.53;100005.09;5088343;28;9909;-79
2022/04/11 07:39:34;;;;;;;;;13.60;9.80;;;;;7.06;54.68;99994.41;5069419;28;8919;-80
2022/04/11 07:42:05;;;;;;;;;11.00;11.00;;;;;7.17;54.51;100006.72;5044754;28;8962;-80
2022/04/11 07:44:34;;;;;;;;;11.40;11.40;;;;;7.14;53.44;100011.84;5069888;28;9071;-80
2022/04/11 07:47:03;;;;;;;;;17.00;14.00;;;;;7.05;53.86;100008.19;5092804;28;8876;-78
2022/04/11 07:49:31;;;;;;;;;18.00;17.80;;;;;7.16;54.17;100009.28;5049439;28;8951;-78
2022/04/11 07:52:00;;;;;;;;;14.00;14.00;;;;;7.23;53.30;100012.03;5087491;28;8870;-78
2022/04/11 07:54:29;;;;;;;;;13.60;13.00;;;;;7.18;53.87;100012.78;5012122;28;8858;-81
2022/04/11 07:56:57;;;;;;;;;15.40;13.00;;;;;7.47;52.71;100002.16;5025227;28;8973;-78
2022/04/11 07:59:27;;;;;;;;;14.00;13.60;;;;;7.27;53.19;100025.94;5047645;28;8858;-81
2022/04/11 08:01:56;;;;;;;;;9.40;9.20;;;;;7.11;52.38;100019.59;5010210;28;8920;-78
2022/04/11 08:04:25;;;;;;;;;13.60;12.60;;;;;7.20;53.48;100009.41;4980757;28;8880;-80
2022/04/11 08:06:54;;;;;;;;;14.80;12.40;;;;;7.02;52.59;100015.06;5043203;28;8902;-76
2022/04/11 08:09:22;;;;;;;;;12.20;12.20;;;;;6.96;53.30;100029.63;5042549;28;9006;-78
2022/04/11 08:11:51;;;;;;;;;14.00;13.00;;;;;7.25;52.32;99999.09;5024761;28;8845;-78
2022/04/11 08:14:21;;;;;;;;;12.20;12.20;;;;;7.47;51.91;100007.34;5028256;28;8864;-78
2022/04/11 08:16:51;;;;;;;;;13.40;12.20;;;;;7.39;49.95;100008.06;5010928;28;8900;-78
2022/04/11 08:19:20;;;;;;;;;13.20;13.00;;;;;7.51;51.66;100003.94;5027644;28;9784;-80
2022/04/11 08:21:49;;;;;;;;;12.20;11.40;;;;;7.44;51.09;100015.91;5015212;28;8913;-82
2022/04/11 08:24:18;;;;;;;;;11.00;11.00;;;;;7.54;51.46;100022.16;5039218;28;8874;-77
2022/04/11 08:26:47;;;;;;;;;12.00;10.80;;;;;7.48;51.55;100025.50;5097873;28;8850;-76
2022/04/11 08:29:17;;;;;;;;;14.00;12.60;;;;;7.64;51.37;100018.91;5067881;28;8896;-80
2022/04/11 08:31:46;;;;;;;;;13.20;12.60;;;;;7.30;52.69;100009.59;5083778;28;8895;-79
2022/04/11 08:34:17;;;;;;;;;12.60;11.80;;;;;7.57;52.23;100009.25;5075011;28;8826;-79
2022/04/11 08:36:46;;;;;;;;;14.80;13.60;;;;;7.51;51.22;100015.19;5070909;28;8862;-84
2022/04/11 08:39:15;;;;;;;;;12.00;9.40;;;;;7.67;51.85;99997.31;5070540;28;8854;-83
2022/04/11 08:41:44;;;;;;;;;12.20;11.40;;;;;8.06;50.23;99998.88;5065300;28;8856;-83
2022/04/11 08:44:14;;;;;;;;;6.00;5.40;;;;;8.08;47.68;100005.84;5084797;28;8888;-79
2022/04/11 08:46:43;;;;;;;;;14.20;11.40;;;;;8.15;49.05;100002.50;5050704;28;8999;-79
2022/04/11 08:49:12;;;;;;;;;11.60;11.00;;;;;8.37;49.96;99997.63;5051399;28;8848;-79
2022/04/11 08:51:43;;;;;;;;;13.00;13.00;;;;;8.38;47.86;100009.78;5066963;28;8934;-78
2022/04/11 08:54:12;;;;;;;;;13.40;9.80;;;;;8.31;47.64;99997.53;5065403;28;8858;-79
2022/04/11 08:56:41;;;;;;;;;13.00;11.00;;;;;8.23;47.76;100009.56;5087377;28;9576;-81
2022/04/11 08:59:10;;;;;;;;;11.00;10.20;;;;;8.53;47.67;100001.41;5083710;28;8849;-82
2022/04/11 09:01:39;;;;;;;;;15.20;13.60;;;;;8.89;45.87;99992.38;5070505;28;8843;-80
2022/04/11 09:04:09;;;;;;;;;12.80;11.00;;;;;9.15;46.56;99990.97;5069828;28;9069;-71
2022/04/11 09:06:55;;;;;;;;;11.60;11.20;;;;;8.49;48.07;99984.88;5024987;28;8995;-82
2022/04/11 09:09:39;;;;;;;;;6.80;6.80;;;;;8.54;44.34;99993.63;5065001;28;8885;-79
2022/04/11 09:12:10;;;;;;;;;10.20;9.00;;;;;8.58;44.18;99986.72;5066075;28;8939;-82
2022/04/11 09:14:40;;;;;;;;;10.40;9.00;;;;;8.81;45.19;99984.47;5042674;28;8861;-80
2022/04/11 09:17:09;;;;;;;;;9.80;9.80;;;;;9.01;45.43;99989.91;4999477;28;8865;-78
2022/04/11 09:19:39;;;;;;;;;11.20;10.20;;;;;9.35;45.48;99988.59;5062382;28;8862;-82
2022/04/11 09:22:32;;;;;;;;;8.00;8.00;;;;;9.76;45.39;99980.34;5082611;28;8841;-82
2022/04/11 09:25:08;;;;;;;;;16.00;12.40;;;;;9.49;45.42;99980.97;5002258;28;8903;-81
2022/04/11 09:27:39;;;;;;;;;17.40;15.40;;;;;9.02;46.49;99983.88;5057241;28;8848;-82
2022/04/11 09:30:22;;;;;;;;;17.60;14.80;;;;;9.33;48.15;99968.63;5054513;28;8847;-79
2022/04/11 09:33:01;;;;;;;;;15.20;12.60;;;;;8.81;47.26;99986.16;5068379;28;8892;-78
2022/04/11 09:35:32;;;;;;;;;12.60;12.60;;;;;8.96;48.21;99978.59;5070382;28;8950;-77
2022/04/11 09:38:13;;;;;;;;;15.00;13.40;;;;;9.27;45.54;99989.38;5068894;28;8967;-79
2022/04/11 09:40:46;;;;;;;;;10.40;8.00;;;;;9.00;43.76;99996.00;5066099;28;8866;-80
2022/04/11 09:43:15;;;;;;;;;7.00;7.00;;;;;8.63;43.96;99984.19;5088400;28;9713;-81
2022/04/11 09:45:46;;;;;;;;;10.20;8.00;;;;;8.81;44.46;99981.88;5025275;28;8865;-80
2022/04/11 09:48:21;;;;;;;;;12.40;11.20;;;;;9.04;44.67;99971.75;5069560;28;8856;-79
2022/04/11 09:50:51;;;;;;;;;18.60;18.60;;;;;9.07;45.17;99973.50;5030161;28;8896;-79
2022/04/11 09:53:23;;;;;;;;;14.80;11.40;;;;;9.14;44.83;99976.22;5054192;28;8964;-82
2022/04/11 09:55:54;;;;;;;;;10.20;7.20;;;;;9.17;44.82;99965.84;5050315;28;9065;-81
2022/04/11 09:58:25;;;;;;;;;8.00;8.00;;;;;8.96;45.39;99982.06;5029219;28;8861;-79
2022/04/11 10:00:55;;;;;;;;;8.20;6.80;;;;;9.07;45.36;99978.72;5044646;28;8869;-79
2022/04/11 10:03:25;;;;;;;;;11.80;11.00;;;;;9.21;44.38;99969.38;5050134;28;8878;-79
2022/04/11 10:06:01;;;;;;;;;13.80;12.60;;;;;9.40;44.46;99973.03;5050998;28;8888;-80
2022/04/11 10:08:32;;;;;;;;;16.80;14.80;;;;;9.76;43.56;99961.25;5047948;28;9006;-81
2022/04/11 10:11:04;;;;;;;;;12.80;11.60;;;;;9.26;42.61;99977.22;5025743;28;8888;-84
2022/04/11 10:13:37;;;;;;;;;12.00;10.60;;;;;9.18;42.96;99982.31;5030009;28;8852;-79
2022/04/11 10:16:08;;;;;;;;;13.20;10.80;;;;;9.23;43.80;99970.25;5053450;28;8850;-78
2022/04/11 10:18:38;;;;;;;;;12.60;10.40;;;;;9.46;43.82;99973.09;5041953;28;8965;-84
2022/04/11 10:21:10;;;;;;;;;13.60;12.80;;;;;9.21;42.89;99984.97;5031694;28;8834;-80
2022/04/11 10:24:06;;;;;;;;;15.00;12.60;;;;;9.45;43.78;99962.66;5070652;28;8834;-77
2022/04/11 10:26:44;;;;;;;;;14.80;13.60;;;;;9.28;44.12;99972.88;5063901;28;8868;-78
2022/04/11 10:29:33;;;;;;;;;16.20;15.60;;;;;9.47;44.31;99973.97;5067614;28;8872;-77
2022/04/11 10:32:06;;;;;;;;;10.60;8.20;;;;;9.55;44.01;99975.81;5086327;28;8880;-78
2022/04/11 10:34:46;;;;;;;;;12.80;11.40;;;;;9.45;43.44;99968.78;5051244;28;8862;-78
2022/04/11 10:37:16;;;;;;;;;15.20;13.80;;;;;9.74;43.30;99963.84;5017819;28;8858;-79
2022/04/11 10:39:48;;;;;;;;;16.00;14.40;;;;;9.98;42.26;99964.06;5066664;28;8869;-79
2022/04/11 10:42:19;;;;;;;;;12.80;11.60;;;;;10.14;40.13;99969.41;5068704;28;8896;-86
2022/04/11 10:44:50;;;;;;;;;12.40;11.60;;;;;10.31;41.42;99958.28;5052578;28;8938;-78
2022/04/11 10:47:33;;;;;;;;;11.60;11.60;;;;;9.95;40.51;99983.16;5074486;28;8843;-79
2022/04/11 10:50:34;;;;;;;;;11.40;11.00;;;;;9.74;41.17;99963.84;5068604;28;8860;-78
2022/04/11 10:53:15;;;;;;;;;13.40;13.40;;;;;10.18;40.81;99961.63;5036402;28;8847;-79
2022/04/11 10:56:04;;;;;;;;;12.00;11.40;;;;;10.54;40.58;99961.91;5066388;28;8842;-79
2022/04/11 10:58:50;;;;;;;;;11.80;11.80;;;;;10.92;39.73;99957.75;5068953;28;9004;-79
2022/04/11 11:01:53;;;;;;;;;12.00;12.00;;;;;10.64;38.84;99961.94;5082570;28;8827;-76
2022/04/11 11:04:24;;;;;;;;;11.40;11.40;;;;;10.39;39.62;99953.97;5055574;28;8862;-76
2022/04/11 11:07:23;;;;;;;;;11.80;11.80;;;;;10.18;38.32;99957.28;5066285;28;8871;-77
2022/04/11 11:09:56;;;;;;;;;10.20;10.20;;;;;10.33;38.17;99951.34;5083361;28;8950;-77
2022/04/11 11:12:28;;;;;;;;;8.40;8.40;;;;;10.85;38.21;99941.22;5032876;28;8910;-77
2022/04/11 11:14:56;;;;;;;;;13.20;11.20;;;;;11.22;37.67;99943.94;5067018;28;8888;-77
2022/04/11 11:17:55;;;;;;;;;9.20;8.40;;;;;11.08;36.77;99945.66;5050088;28;8844;-79
2022/04/11 11:20:24;;;;;;;;;12.40;10.80;;;;;11.26;36.15;99948.31;4976299;28;8922;-80
2022/04/11 11:23:16;;;;;;;;;8.80;7.40;;;;;10.82;35.38;99958.59;4976689;28;8964;-77
2022/04/11 11:25:45;;;;;;;;;10.80;8.80;;;;;10.62;35.78;99935.00;4992383;28;8860;-76
2022/04/11 11:28:16;;;;;;;;;8.80;8.40;;;;;10.85;36.19;99948.16;4993228;28;9582;-79
2022/04/11 11:30:45;;;;;;;;;12.80;11.60;;;;;10.83;37.60;99945.56;4993062;28;8836;-80
2022/04/11 11:33:15;;;;;;;;;12.80;12.40;;;;;11.07;37.46;99952.59;4992772;28;8852;-78
2022/04/11 11:35:52;;;;;;;;;17.60;15.60;;;;;11.03;37.21;99940.41;4976408;28;8840;-79
2022/04/11 11:38:23;;;;;;;;;13.20;12.20;;;;;11.49;36.74;99935.34;4992197;28;8874;-78
2022/04/11 11:40:57;;;;;;;;;13.80;11.00;;;;;10.88;36.91;99950.78;4991646;28;8926;-79
2022/04/11 11:43:28;;;;;;;;;12.40;11.60;;;;;10.93;36.76;99944.72;5011629;28;8888;-78
2022/04/11 11:45:58;;;;;;;;;10.80;6.60;;;;;11.14;35.60;99932.63;5028351;28;8834;-78
2022/04/11 11:48:29;;;;;;;;;10.20;9.40;;;;;11.31;35.22;99935.28;4995511;28;8856;-76
2022/04/11 11:50:59;;;;;;;;;12.20;11.00;;;;;11.47;34.52;99930.97;5012239;28;9035;-77
2022/04/11 11:53:41;;;;;;;;;10.60;10.60;;;;;11.27;34.56;99931.78;5011852;28;8842;-77